Etusivu
METAR-TAF:

METAR-TAF

Lentoasemat :

Dakar, Senegal

Leveyspiiri: 14-44N, Pituuspiiri: 017-30W, korkeus merenpinnasta: 27 m

Tämänhetkinen sää

Tämä raportti tehtiin 37 minuuttia sitten, kello 18.30 UTC
Tuuli 7 kn lännestä/luoteesta, vaihdellen lännen/lounaan ja luoteen välillä
Lämpötila 30°C
Kosteus 66%
Ilmanpaine 1013 hPa
Näkyvyys 10 km tai enemmän
Muutamia pilviä 1200 ft:n korkeudessa

METAR: GOOY 231830Z 29007KT 240V320 9999 FEW012 30/23 Q1013 NOSIG

Aika: 19:07 (19:07 UTC)

Sääennuste

Tämä raportti tehtiin 1 tunti ja 37 minuuttia sitten, kello 17.30 UTC
Ennuste voimassa 23. päivästä klo 18 UTC - 24. päivään klo 24 UTC
Tuuli 8 kn luoteesta
Näkyvyys 10 km tai enemmän
Hajanaisia pilviä 1000 ft:n korkeudessa

TAF: GOOY 231730Z 2318/2424 32008KT 9999 SCT010

Säähavainnot ja -ennusteet yli 4000 lentoasemalta (METAR- ja TAF-raportit).

Käytössä olevat sääasemat on merkitty karttaan keltaisilla ja punaisilla pisteillä.

Aseta hiiri pisteen päälle nähdäksesi sääaseman nimen.

Klikkaa sitten nähdäksesi säähavainnot ja -ennusteet.

Kartan vaihtaminen: klikkaa mustalla rastilla varustettuja vihreitä pisteitä, niin voit zoomata sisään; viivalla varustettua vihreää pistettä, niin voit zoomata ulos tai vihreitä nuolia, niin pääset viereisille kartoille.


METAR-TAF: